sensor_id;sensor_type;location;lat;lon;timestamp;temperature;humidity
25440;DHT22;13365;52.208;5.488;2023-08-07T00:01:10;16.90;99.90
25440;DHT22;13365;52.208;5.488;2023-08-07T00:03:35;16.90;99.90
25440;DHT22;13365;52.208;5.488;2023-08-07T00:06:01;16.90;99.90
25440;DHT22;13365;52.208;5.488;2023-08-07T00:08:27;16.90;99.90
25440;DHT22;13365;52.208;5.488;2023-08-07T00:10:52;16.80;99.90
25440;DHT22;13365;52.208;5.488;2023-08-07T00:13:18;17.00;99.90
25440;DHT22;13365;52.208;5.488;2023-08-07T00:15:44;17.00;99.90
25440;DHT22;13365;52.208;5.488;2023-08-07T00:18:10;17.00;99.90
25440;DHT22;13365;52.208;5.488;2023-08-07T00:20:35;17.00;99.90
25440;DHT22;13365;52.208;5.488;2023-08-07T00:23:01;17.10;99.90
25440;DHT22;13365;52.208;5.488;2023-08-07T00:25:26;17.20;99.90
25440;DHT22;13365;52.208;5.488;2023-08-07T00:27:52;17.30;99.90
25440;DHT22;13365;52.208;5.488;2023-08-07T00:30:18;17.30;99.90
25440;DHT22;13365;52.208;5.488;2023-08-07T00:32:43;17.10;99.90
25440;DHT22;13365;52.208;5.488;2023-08-07T00:35:09;17.00;99.90
25440;DHT22;13365;52.208;5.488;2023-08-07T00:37:34;16.90;99.90
25440;DHT22;13365;52.208;5.488;2023-08-07T00:40:00;17.10;99.90
25440;DHT22;13365;52.208;5.488;2023-08-07T00:42:26;17.30;99.90
25440;DHT22;13365;52.208;5.488;2023-08-07T00:44:51;17.30;99.90
25440;DHT22;13365;52.208;5.488;2023-08-07T00:47:17;17.10;99.90
25440;DHT22;13365;52.208;5.488;2023-08-07T00:49:42;17.20;99.90
25440;DHT22;13365;52.208;5.488;2023-08-07T00:52:08;17.10;99.90
25440;DHT22;13365;52.208;5.488;2023-08-07T00:54:37;17.20;99.90
25440;DHT22;13365;52.208;5.488;2023-08-07T00:57:13;17.10;99.90
25440;DHT22;13365;52.208;5.488;2023-08-07T00:59:40;17.30;99.90
25440;DHT22;13365;52.208;5.488;2023-08-07T01:02:07;17.40;99.90
25440;DHT22;13365;52.208;5.488;2023-08-07T01:04:33;17.50;99.90
25440;DHT22;13365;52.208;5.488;2023-08-07T01:06:58;17.50;99.90
25440;DHT22;13365;52.208;5.488;2023-08-07T01:09:24;17.70;99.90
25440;DHT22;13365;52.208;5.488;2023-08-07T01:14:37;17.50;99.90
25440;DHT22;13365;52.208;5.488;2023-08-07T01:17:09;17.20;99.90
25440;DHT22;13365;52.208;5.488;2023-08-07T01:19:36;17.30;99.90
25440;DHT22;13365;52.208;5.488;2023-08-07T01:22:13;17.00;99.90
25440;DHT22;13365;52.208;5.488;2023-08-07T01:24:43;17.40;99.90
25440;DHT22;13365;52.208;5.488;2023-08-07T01:27:30;17.60;99.90
25440;DHT22;13365;52.208;5.488;2023-08-07T01:35:46;17.60;99.90
25440;DHT22;13365;52.208;5.488;2023-08-07T01:38:13;17.90;99.90
25440;DHT22;13365;52.208;5.488;2023-08-07T01:40:40;17.90;99.90
25440;DHT22;13365;52.208;5.488;2023-08-07T01:43:07;18.00;99.90
25440;DHT22;13365;52.208;5.488;2023-08-07T01:45:33;18.20;99.90
25440;DHT22;13365;52.208;5.488;2023-08-07T01:47:59;18.30;99.90
25440;DHT22;13365;52.208;5.488;2023-08-07T01:50:25;18.20;99.90
25440;DHT22;13365;52.208;5.488;2023-08-07T01:52:50;18.20;99.90
25440;DHT22;13365;52.208;5.488;2023-08-07T01:55:17;18.10;99.90
25440;DHT22;13365;52.208;5.488;2023-08-07T01:57:43;18.00;99.90
25440;DHT22;13365;52.208;5.488;2023-08-07T02:00:10;17.80;99.90
25440;DHT22;13365;52.208;5.488;2023-08-07T02:02:36;17.70;99.90
25440;DHT22;13365;52.208;5.488;2023-08-07T02:05:02;17.50;99.90
25440;DHT22;13365;52.208;5.488;2023-08-07T02:07:28;17.50;99.90
25440;DHT22;13365;52.208;5.488;2023-08-07T02:09:54;17.50;99.90
25440;DHT22;13365;52.208;5.488;2023-08-07T02:12:19;17.70;99.90
25440;DHT22;13365;52.208;5.488;2023-08-07T02:14:45;17.70;99.90
25440;DHT22;13365;52.208;5.488;2023-08-07T02:17:11;17.70;99.90
25440;DHT22;13365;52.208;5.488;2023-08-07T02:19:36;17.60;99.90
25440;DHT22;13365;52.208;5.488;2023-08-07T02:22:02;17.70;99.90
25440;DHT22;13365;52.208;5.488;2023-08-07T02:24:28;17.80;99.90
25440;DHT22;13365;52.208;5.488;2023-08-07T02:26:53;17.90;99.90
25440;DHT22;13365;52.208;5.488;2023-08-07T02:29:19;17.70;99.90
25440;DHT22;13365;52.208;5.488;2023-08-07T02:31:44;17.90;99.90
25440;DHT22;13365;52.208;5.488;2023-08-07T02:34:10;17.90;99.90
25440;DHT22;13365;52.208;5.488;2023-08-07T02:36:35;17.80;99.90
25440;DHT22;13365;52.208;5.488;2023-08-07T02:39:01;17.90;99.90
25440;DHT22;13365;52.208;5.488;2023-08-07T02:41:30;17.70;99.90
25440;DHT22;13365;52.208;5.488;2023-08-07T02:43:57;17.70;99.90
25440;DHT22;13365;52.208;5.488;2023-08-07T02:46:24;17.70;99.90
25440;DHT22;13365;52.208;5.488;2023-08-07T02:48:52;17.70;99.90
25440;DHT22;13365;52.208;5.488;2023-08-07T02:51:19;17.60;99.90
25440;DHT22;13365;52.208;5.488;2023-08-07T02:53:46;17.80;99.90
25440;DHT22;13365;52.208;5.488;2023-08-07T02:56:11;17.80;99.90
25440;DHT22;13365;52.208;5.488;2023-08-07T02:58:37;17.70;99.90
25440;DHT22;13365;52.208;5.488;2023-08-07T03:01:06;17.50;99.90
25440;DHT22;13365;52.208;5.488;2023-08-07T03:03:32;17.40;99.90
25440;DHT22;13365;52.208;5.488;2023-08-07T03:06:00;17.50;99.90
25440;DHT22;13365;52.208;5.488;2023-08-07T03:08:27;17.30;99.90
25440;DHT22;13365;52.208;5.488;2023-08-07T03:10:53;17.20;99.90
25440;DHT22;13365;52.208;5.488;2023-08-07T03:13:21;17.40;99.90
25440;DHT22;13365;52.208;5.488;2023-08-07T03:15:46;17.30;99.90
25440;DHT22;13365;52.208;5.488;2023-08-07T03:18:14;16.90;99.90
25440;DHT22;13365;52.208;5.488;2023-08-07T03:20:40;17.00;99.90
25440;DHT22;13365;52.208;5.488;2023-08-07T03:23:05;17.00;99.90
25440;DHT22;13365;52.208;5.488;2023-08-07T03:25:31;17.30;99.90
25440;DHT22;13365;52.208;5.488;2023-08-07T03:27:58;17.30;99.90
25440;DHT22;13365;52.208;5.488;2023-08-07T03:30:24;17.20;99.90
25440;DHT22;13365;52.208;5.488;2023-08-07T03:32:50;17.20;99.90
25440;DHT22;13365;52.208;5.488;2023-08-07T03:35:15;17.10;99.90
25440;DHT22;13365;52.208;5.488;2023-08-07T03:37:41;17.10;99.90
25440;DHT22;13365;52.208;5.488;2023-08-07T03:40:07;17.40;99.90
25440;DHT22;13365;52.208;5.488;2023-08-07T03:42:35;17.00;99.90
25440;DHT22;13365;52.208;5.488;2023-08-07T03:45:01;17.00;99.90
25440;DHT22;13365;52.208;5.488;2023-08-07T03:47:28;16.90;99.90
25440;DHT22;13365;52.208;5.488;2023-08-07T03:49:53;16.90;99.90
25440;DHT22;13365;52.208;5.488;2023-08-07T03:52:19;17.00;99.90
25440;DHT22;13365;52.208;5.488;2023-08-07T03:54:46;17.00;99.90
25440;DHT22;13365;52.208;5.488;2023-08-07T03:57:11;17.00;99.90
25440;DHT22;13365;52.208;5.488;2023-08-07T03:59:37;17.10;99.90
25440;DHT22;13365;52.208;5.488;2023-08-07T04:02:03;17.00;99.90
25440;DHT22;13365;52.208;5.488;2023-08-07T04:04:28;17.20;99.90
25440;DHT22;13365;52.208;5.488;2023-08-07T04:06:54;17.00;99.90
25440;DHT22;13365;52.208;5.488;2023-08-07T04:09:21;17.20;99.90
25440;DHT22;13365;52.208;5.488;2023-08-07T04:11:46;17.30;99.90
25440;DHT22;13365;52.208;5.488;2023-08-07T04:14:14;17.50;99.90
25440;DHT22;13365;52.208;5.488;2023-08-07T04:16:39;17.60;99.90
25440;DHT22;13365;52.208;5.488;2023-08-07T04:19:05;17.60;99.90
25440;DHT22;13365;52.208;5.488;2023-08-07T04:21:33;17.60;99.90
25440;DHT22;13365;52.208;5.488;2023-08-07T04:23:59;17.60;99.90
25440;DHT22;13365;52.208;5.488;2023-08-07T04:26:26;17.50;99.90
25440;DHT22;13365;52.208;5.488;2023-08-07T04:28:52;17.50;99.90
25440;DHT22;13365;52.208;5.488;2023-08-07T04:31:17;17.60;99.90
25440;DHT22;13365;52.208;5.488;2023-08-07T04:33:43;17.50;99.90
25440;DHT22;13365;52.208;5.488;2023-08-07T04:36:08;17.30;99.90
25440;DHT22;13365;52.208;5.488;2023-08-07T04:38:34;17.50;99.90
25440;DHT22;13365;52.208;5.488;2023-08-07T04:41:00;17.50;99.90
25440;DHT22;13365;52.208;5.488;2023-08-07T04:43:25;17.70;99.90
25440;DHT22;13365;52.208;5.488;2023-08-07T04:45:51;17.90;99.90
25440;DHT22;13365;52.208;5.488;2023-08-07T04:48:16;17.90;99.90
25440;DHT22;13365;52.208;5.488;2023-08-07T04:50:43;17.90;99.90
25440;DHT22;13365;52.208;5.488;2023-08-07T04:53:08;17.70;99.90
25440;DHT22;13365;52.208;5.488;2023-08-07T04:55:34;17.70;99.90
25440;DHT22;13365;52.208;5.488;2023-08-07T04:58:00;17.80;99.90
25440;DHT22;13365;52.208;5.488;2023-08-07T05:00:26;17.70;99.90
25440;DHT22;13365;52.208;5.488;2023-08-07T05:02:52;17.60;99.90
25440;DHT22;13365;52.208;5.488;2023-08-07T05:05:18;17.50;99.90
25440;DHT22;13365;52.208;5.488;2023-08-07T05:07:47;17.70;99.90
25440;DHT22;13365;52.208;5.488;2023-08-07T05:10:13;17.90;99.90
25440;DHT22;13365;52.208;5.488;2023-08-07T05:12:39;18.00;99.90
25440;DHT22;13365;52.208;5.488;2023-08-07T05:15:05;18.00;99.90
25440;DHT22;13365;52.208;5.488;2023-08-07T05:17:31;18.10;99.90
25440;DHT22;13365;52.208;5.488;2023-08-07T05:19:57;18.10;99.90
25440;DHT22;13365;52.208;5.488;2023-08-07T05:22:22;18.00;99.90
25440;DHT22;13365;52.208;5.488;2023-08-07T05:24:48;17.90;99.90
25440;DHT22;13365;52.208;5.488;2023-08-07T05:27:14;17.90;99.90
25440;DHT22;13365;52.208;5.488;2023-08-07T05:29:40;17.90;99.90
25440;DHT22;13365;52.208;5.488;2023-08-07T05:32:12;17.80;99.90
25440;DHT22;13365;52.208;5.488;2023-08-07T05:34:39;17.80;99.90
25440;DHT22;13365;52.208;5.488;2023-08-07T05:37:05;17.90;99.90
25440;DHT22;13365;52.208;5.488;2023-08-07T05:39:31;17.90;99.90
25440;DHT22;13365;52.208;5.488;2023-08-07T05:41:56;17.90;99.90
25440;DHT22;13365;52.208;5.488;2023-08-07T05:44:23;17.90;99.90
25440;DHT22;13365;52.208;5.488;2023-08-07T05:46:49;18.10;99.90
25440;DHT22;13365;52.208;5.488;2023-08-07T05:49:15;18.20;99.90
25440;DHT22;13365;52.208;5.488;2023-08-07T05:51:41;18.20;99.90
25440;DHT22;13365;52.208;5.488;2023-08-07T05:54:06;18.40;99.90
25440;DHT22;13365;52.208;5.488;2023-08-07T05:56:32;18.40;99.90
25440;DHT22;13365;52.208;5.488;2023-08-07T05:58:58;18.30;99.90
25440;DHT22;13365;52.208;5.488;2023-08-07T06:01:23;18.50;99.90
25440;DHT22;13365;52.208;5.488;2023-08-07T06:03:54;18.30;99.90
25440;DHT22;13365;52.208;5.488;2023-08-07T06:06:22;18.40;99.90
25440;DHT22;13365;52.208;5.488;2023-08-07T06:08:48;18.30;99.90
25440;DHT22;13365;52.208;5.488;2023-08-07T06:11:14;18.50;99.90
25440;DHT22;13365;52.208;5.488;2023-08-07T06:13:43;18.50;99.90
25440;DHT22;13365;52.208;5.488;2023-08-07T06:16:08;18.70;99.90
25440;DHT22;13365;52.208;5.488;2023-08-07T06:18:34;18.60;99.90
25440;DHT22;13365;52.208;5.488;2023-08-07T06:21:00;18.60;99.90
25440;DHT22;13365;52.208;5.488;2023-08-07T06:23:25;18.60;99.90
25440;DHT22;13365;52.208;5.488;2023-08-07T06:25:51;18.60;99.90
25440;DHT22;13365;52.208;5.488;2023-08-07T06:28:16;18.70;99.90
25440;DHT22;13365;52.208;5.488;2023-08-07T06:30:42;18.70;99.90
25440;DHT22;13365;52.208;5.488;2023-08-07T06:33:07;18.90;99.90
25440;DHT22;13365;52.208;5.488;2023-08-07T06:35:39;19.00;99.90
25440;DHT22;13365;52.208;5.488;2023-08-07T06:38:05;19.20;99.90
25440;DHT22;13365;52.208;5.488;2023-08-07T06:40:31;19.30;99.90
25440;DHT22;13365;52.208;5.488;2023-08-07T06:42:57;19.30;99.90
25440;DHT22;13365;52.208;5.488;2023-08-07T06:45:22;19.20;99.90
25440;DHT22;13365;52.208;5.488;2023-08-07T06:47:48;19.40;99.90
25440;DHT22;13365;52.208;5.488;2023-08-07T06:50:14;19.40;99.90
25440;DHT22;13365;52.208;5.488;2023-08-07T06:52:39;19.40;99.90
25440;DHT22;13365;52.208;5.488;2023-08-07T06:55:05;19.40;99.90
25440;DHT22;13365;52.208;5.488;2023-08-07T06:57:31;19.40;99.90
25440;DHT22;13365;52.208;5.488;2023-08-07T06:59:56;19.30;99.90
25440;DHT22;13365;52.208;5.488;2023-08-07T07:02:22;19.30;99.90
25440;DHT22;13365;52.208;5.488;2023-08-07T07:04:47;19.30;99.90
25440;DHT22;13365;52.208;5.488;2023-08-07T07:07:13;19.30;99.90
25440;DHT22;13365;52.208;5.488;2023-08-07T07:09:38;19.40;99.90
25440;DHT22;13365;52.208;5.488;2023-08-07T07:12:04;19.60;99.90
25440;DHT22;13365;52.208;5.488;2023-08-07T07:14:30;19.60;99.90
25440;DHT22;13365;52.208;5.488;2023-08-07T07:16:55;19.70;99.90
25440;DHT22;13365;52.208;5.488;2023-08-07T07:19:20;19.80;99.90
25440;DHT22;13365;52.208;5.488;2023-08-07T07:21:46;19.60;99.90
25440;DHT22;13365;52.208;5.488;2023-08-07T07:24:12;19.30;99.90
25440;DHT22;13365;52.208;5.488;2023-08-07T07:26:37;19.10;99.90
25440;DHT22;13365;52.208;5.488;2023-08-07T07:29:02;19.20;99.90
25440;DHT22;13365;52.208;5.488;2023-08-07T07:31:28;19.20;99.90
25440;DHT22;13365;52.208;5.488;2023-08-07T07:33:54;19.00;99.90
25440;DHT22;13365;52.208;5.488;2023-08-07T07:36:19;18.80;99.90
25440;DHT22;13365;52.208;5.488;2023-08-07T07:38:46;18.70;99.90
25440;DHT22;13365;52.208;5.488;2023-08-07T07:41:13;18.50;99.90
25440;DHT22;13365;52.208;5.488;2023-08-07T07:43:38;18.40;99.90
25440;DHT22;13365;52.208;5.488;2023-08-07T07:46:04;18.40;99.90
25440;DHT22;13365;52.208;5.488;2023-08-07T07:48:30;18.60;99.90
25440;DHT22;13365;52.208;5.488;2023-08-07T07:51:02;18.80;99.90
25440;DHT22;13365;52.208;5.488;2023-08-07T07:53:28;18.80;99.90
25440;DHT22;13365;52.208;5.488;2023-08-07T07:55:53;19.20;99.90
25440;DHT22;13365;52.208;5.488;2023-08-07T07:58:20;19.40;99.90
25440;DHT22;13365;52.208;5.488;2023-08-07T08:00:46;19.70;99.90
25440;DHT22;13365;52.208;5.488;2023-08-07T08:03:11;19.80;99.90
25440;DHT22;13365;52.208;5.488;2023-08-07T08:05:37;19.90;99.90
25440;DHT22;13365;52.208;5.488;2023-08-07T08:08:03;20.00;99.90
25440;DHT22;13365;52.208;5.488;2023-08-07T08:10:29;20.00;99.90
25440;DHT22;13365;52.208;5.488;2023-08-07T08:12:55;20.00;99.90
25440;DHT22;13365;52.208;5.488;2023-08-07T08:15:21;20.10;99.90
25440;DHT22;13365;52.208;5.488;2023-08-07T08:17:47;20.20;99.90
25440;DHT22;13365;52.208;5.488;2023-08-07T08:20:14;20.00;99.90
25440;DHT22;13365;52.208;5.488;2023-08-07T08:22:44;19.80;99.90
25440;DHT22;13365;52.208;5.488;2023-08-07T08:25:10;19.60;99.90
25440;DHT22;13365;52.208;5.488;2023-08-07T08:27:39;19.10;99.90
25440;DHT22;13365;52.208;5.488;2023-08-07T08:30:06;19.00;99.90
25440;DHT22;13365;52.208;5.488;2023-08-07T08:32:32;18.70;99.90
25440;DHT22;13365;52.208;5.488;2023-08-07T08:34:57;18.60;99.90
25440;DHT22;13365;52.208;5.488;2023-08-07T08:37:23;18.60;99.90
25440;DHT22;13365;52.208;5.488;2023-08-07T08:39:49;19.00;99.90
25440;DHT22;13365;52.208;5.488;2023-08-07T08:42:15;19.50;99.90
25440;DHT22;13365;52.208;5.488;2023-08-07T08:44:53;19.80;99.90
25440;DHT22;13365;52.208;5.488;2023-08-07T08:47:21;20.30;99.90
25440;DHT22;13365;52.208;5.488;2023-08-07T08:49:50;20.40;99.90
25440;DHT22;13365;52.208;5.488;2023-08-07T08:52:17;21.00;99.90
25440;DHT22;13365;52.208;5.488;2023-08-07T08:54:44;20.80;99.90
25440;DHT22;13365;52.208;5.488;2023-08-07T08:57:09;20.90;99.90
25440;DHT22;13365;52.208;5.488;2023-08-07T08:59:36;20.20;99.90
25440;DHT22;13365;52.208;5.488;2023-08-07T09:02:02;20.20;99.90
25440;DHT22;13365;52.208;5.488;2023-08-07T09:04:28;20.00;99.90
25440;DHT22;13365;52.208;5.488;2023-08-07T09:06:54;19.90;99.90
25440;DHT22;13365;52.208;5.488;2023-08-07T09:09:20;19.80;99.90
25440;DHT22;13365;52.208;5.488;2023-08-07T09:11:47;20.10;99.90
25440;DHT22;13365;52.208;5.488;2023-08-07T09:14:22;20.10;99.90
25440;DHT22;13365;52.208;5.488;2023-08-07T09:16:49;20.00;99.90
25440;DHT22;13365;52.208;5.488;2023-08-07T09:19:15;20.00;99.90
25440;DHT22;13365;52.208;5.488;2023-08-07T09:21:40;20.00;99.90
25440;DHT22;13365;52.208;5.488;2023-08-07T09:24:06;20.10;99.90
25440;DHT22;13365;52.208;5.488;2023-08-07T09:26:32;20.30;99.90
25440;DHT22;13365;52.208;5.488;2023-08-07T09:28:59;20.60;99.90
25440;DHT22;13365;52.208;5.488;2023-08-07T09:31:25;20.80;99.90
25440;DHT22;13365;52.208;5.488;2023-08-07T09:33:54;21.10;99.90
25440;DHT22;13365;52.208;5.488;2023-08-07T09:36:20;21.20;98.80
25440;DHT22;13365;52.208;5.488;2023-08-07T09:38:51;21.00;97.00
25440;DHT22;13365;52.208;5.488;2023-08-07T09:41:18;20.60;97.30
25440;DHT22;13365;52.208;5.488;2023-08-07T09:43:44;20.30;97.80
25440;DHT22;13365;52.208;5.488;2023-08-07T09:46:10;20.30;98.90
25440;DHT22;13365;52.208;5.488;2023-08-07T09:48:43;20.40;99.40
25440;DHT22;13365;52.208;5.488;2023-08-07T09:51:10;20.60;99.30
25440;DHT22;13365;52.208;5.488;2023-08-07T09:53:35;20.80;99.90
25440;DHT22;13365;52.208;5.488;2023-08-07T09:56:01;20.90;98.80
25440;DHT22;13365;52.208;5.488;2023-08-07T09:58:28;21.00;99.10
25440;DHT22;13365;52.208;5.488;2023-08-07T10:00:54;21.10;98.30
25440;DHT22;13365;52.208;5.488;2023-08-07T10:03:21;21.10;97.30
25440;DHT22;13365;52.208;5.488;2023-08-07T10:05:49;21.10;97.70
25440;DHT22;13365;52.208;5.488;2023-08-07T10:08:15;21.10;96.80
25440;DHT22;13365;52.208;5.488;2023-08-07T10:10:41;20.70;98.40
25440;DHT22;13365;52.208;5.488;2023-08-07T10:13:07;20.90;99.10
25440;DHT22;13365;52.208;5.488;2023-08-07T10:15:33;20.70;99.30
25440;DHT22;13365;52.208;5.488;2023-08-07T10:18:02;20.50;99.90
25440;DHT22;13365;52.208;5.488;2023-08-07T10:20:29;20.10;99.90
25440;DHT22;13365;52.208;5.488;2023-08-07T10:23:00;20.40;99.90
25440;DHT22;13365;52.208;5.488;2023-08-07T10:25:28;20.70;99.90
25440;DHT22;13365;52.208;5.488;2023-08-07T10:27:55;21.00;99.90
25440;DHT22;13365;52.208;5.488;2023-08-07T10:30:22;21.20;99.90
25440;DHT22;13365;52.208;5.488;2023-08-07T10:32:48;21.40;99.90
25440;DHT22;13365;52.208;5.488;2023-08-07T10:35:30;21.80;99.10
25440;DHT22;13365;52.208;5.488;2023-08-07T10:38:10;21.80;97.20
25440;DHT22;13365;52.208;5.488;2023-08-07T10:43:24;21.70;97.80
25440;DHT22;13365;52.208;5.488;2023-08-07T10:45:50;21.80;97.10
25440;DHT22;13365;52.208;5.488;2023-08-07T10:48:18;21.80;96.20
25440;DHT22;13365;52.208;5.488;2023-08-07T10:50:55;21.60;96.10
25440;DHT22;13365;52.208;5.488;2023-08-07T10:53:42;21.30;96.90
25440;DHT22;13365;52.208;5.488;2023-08-07T10:56:11;20.70;98.40
25440;DHT22;13365;52.208;5.488;2023-08-07T10:58:41;20.50;99.50
25440;DHT22;13365;52.208;5.488;2023-08-07T11:04:12;20.60;99.90
25440;DHT22;13365;52.208;5.488;2023-08-07T11:06:40;20.80;99.90
25440;DHT22;13365;52.208;5.488;2023-08-07T11:09:07;21.00;98.10
25440;DHT22;13365;52.208;5.488;2023-08-07T11:11:39;20.90;98.10
25440;DHT22;13365;52.208;5.488;2023-08-07T11:14:25;21.20;98.60
25440;DHT22;13365;52.208;5.488;2023-08-07T11:16:52;21.30;98.20
25440;DHT22;13365;52.208;5.488;2023-08-07T11:19:18;21.10;98.00
25440;DHT22;13365;52.208;5.488;2023-08-07T11:21:44;21.10;99.20
25440;DHT22;13365;52.208;5.488;2023-08-07T11:24:14;20.80;99.00
25440;DHT22;13365;52.208;5.488;2023-08-07T11:26:43;20.80;99.10
25440;DHT22;13365;52.208;5.488;2023-08-07T11:29:09;20.90;98.50
25440;DHT22;13365;52.208;5.488;2023-08-07T11:31:34;20.70;97.60
25440;DHT22;13365;52.208;5.488;2023-08-07T11:34:00;20.40;97.40
25440;DHT22;13365;52.208;5.488;2023-08-07T11:36:28;20.10;97.80
25440;DHT22;13365;52.208;5.488;2023-08-07T11:38:54;20.10;98.00
25440;DHT22;13365;52.208;5.488;2023-08-07T11:41:19;20.30;99.50
25440;DHT22;13365;52.208;5.488;2023-08-07T11:43:45;20.60;99.90
25440;DHT22;13365;52.208;5.488;2023-08-07T11:46:12;20.90;99.90
25440;DHT22;13365;52.208;5.488;2023-08-07T11:48:39;21.10;99.50
25440;DHT22;13365;52.208;5.488;2023-08-07T11:51:06;21.10;98.00
25440;DHT22;13365;52.208;5.488;2023-08-07T11:53:34;21.40;98.90
25440;DHT22;13365;52.208;5.488;2023-08-07T11:56:02;21.40;98.00
25440;DHT22;13365;52.208;5.488;2023-08-07T11:58:34;21.80;98.50
25440;DHT22;13365;52.208;5.488;2023-08-07T12:01:03;22.00;96.00
25440;DHT22;13365;52.208;5.488;2023-08-07T12:03:31;22.20;92.60
25440;DHT22;13365;52.208;5.488;2023-08-07T12:05:58;22.10;90.40
25440;DHT22;13365;52.208;5.488;2023-08-07T12:08:25;21.80;90.70
25440;DHT22;13365;52.208;5.488;2023-08-07T12:10:56;21.80;91.00
25440;DHT22;13365;52.208;5.488;2023-08-07T12:13:24;21.90;92.40
25440;DHT22;13365;52.208;5.488;2023-08-07T12:15:54;22.10;90.30
25440;DHT22;13365;52.208;5.488;2023-08-07T12:18:20;22.10;91.60
25440;DHT22;13365;52.208;5.488;2023-08-07T12:20:49;22.30;90.90
25440;DHT22;13365;52.208;5.488;2023-08-07T12:23:15;22.20;88.60
25440;DHT22;13365;52.208;5.488;2023-08-07T12:25:44;22.40;90.10
25440;DHT22;13365;52.208;5.488;2023-08-07T12:28:10;22.80;90.70
25440;DHT22;13365;52.208;5.488;2023-08-07T12:30:37;23.10;89.70
25440;DHT22;13365;52.208;5.488;2023-08-07T12:33:03;23.20;88.90
25440;DHT22;13365;52.208;5.488;2023-08-07T12:35:30;23.10;85.80
25440;DHT22;13365;52.208;5.488;2023-08-07T12:37:56;22.80;85.00
25440;DHT22;13365;52.208;5.488;2023-08-07T12:40:21;22.50;86.50
25440;DHT22;13365;52.208;5.488;2023-08-07T12:42:48;22.40;90.20
25440;DHT22;13365;52.208;5.488;2023-08-07T12:45:14;22.40;87.60
25440;DHT22;13365;52.208;5.488;2023-08-07T12:47:41;22.50;87.50
25440;DHT22;13365;52.208;5.488;2023-08-07T12:50:08;22.40;85.80
25440;DHT22;13365;52.208;5.488;2023-08-07T12:52:34;22.40;86.40
25440;DHT22;13365;52.208;5.488;2023-08-07T12:54:59;22.30;86.10
25440;DHT22;13365;52.208;5.488;2023-08-07T12:57:25;22.30;86.70
25440;DHT22;13365;52.208;5.488;2023-08-07T12:59:51;22.20;88.20
25440;DHT22;13365;52.208;5.488;2023-08-07T13:02:16;22.10;88.10
25440;DHT22;13365;52.208;5.488;2023-08-07T13:04:42;21.90;90.20
25440;DHT22;13365;52.208;5.488;2023-08-07T13:07:07;21.90;90.50
25440;DHT22;13365;52.208;5.488;2023-08-07T13:09:33;21.90;88.80
25440;DHT22;13365;52.208;5.488;2023-08-07T13:11:58;21.80;87.20
25440;DHT22;13365;52.208;5.488;2023-08-07T13:14:25;21.90;89.10
25440;DHT22;13365;52.208;5.488;2023-08-07T13:16:50;22.00;86.90
25440;DHT22;13365;52.208;5.488;2023-08-07T13:19:16;21.90;87.60
25440;DHT22;13365;52.208;5.488;2023-08-07T13:21:42;22.00;88.10
25440;DHT22;13365;52.208;5.488;2023-08-07T13:24:07;21.80;85.80
25440;DHT22;13365;52.208;5.488;2023-08-07T13:26:33;21.70;86.90
25440;DHT22;13365;52.208;5.488;2023-08-07T13:28:58;21.50;88.00
25440;DHT22;13365;52.208;5.488;2023-08-07T13:31:25;21.20;89.80
25440;DHT22;13365;52.208;5.488;2023-08-07T13:33:51;20.90;90.50
25440;DHT22;13365;52.208;5.488;2023-08-07T13:36:16;20.90;90.80
25440;DHT22;13365;52.208;5.488;2023-08-07T13:38:42;21.00;90.20
25440;DHT22;13365;52.208;5.488;2023-08-07T13:41:08;21.40;90.80
25440;DHT22;13365;52.208;5.488;2023-08-07T13:43:34;21.40;88.90
25440;DHT22;13365;52.208;5.488;2023-08-07T13:45:59;21.50;88.80
25440;DHT22;13365;52.208;5.488;2023-08-07T13:48:25;21.40;89.70
25440;DHT22;13365;52.208;5.488;2023-08-07T13:50:53;21.30;88.40
25440;DHT22;13365;52.208;5.488;2023-08-07T13:53:19;21.00;87.90
25440;DHT22;13365;52.208;5.488;2023-08-07T13:55:49;21.00;87.40
25440;DHT22;13365;52.208;5.488;2023-08-07T13:58:14;21.30;87.10
25440;DHT22;13365;52.208;5.488;2023-08-07T14:00:41;21.40;86.70
25440;DHT22;13365;52.208;5.488;2023-08-07T14:03:08;21.30;86.80
25440;DHT22;13365;52.208;5.488;2023-08-07T14:05:34;21.40;90.30
25440;DHT22;13365;52.208;5.488;2023-08-07T14:07:59;21.60;87.90
25440;DHT22;13365;52.208;5.488;2023-08-07T14:10:25;21.40;89.10
25440;DHT22;13365;52.208;5.488;2023-08-07T14:12:50;21.30;87.70
25440;DHT22;13365;52.208;5.488;2023-08-07T14:15:16;21.50;88.80
25440;DHT22;13365;52.208;5.488;2023-08-07T14:17:41;21.60;87.90
25440;DHT22;13365;52.208;5.488;2023-08-07T14:20:07;21.50;88.70
25440;DHT22;13365;52.208;5.488;2023-08-07T14:22:33;21.80;89.30
25440;DHT22;13365;52.208;5.488;2023-08-07T14:25:02;22.00;88.90
25440;DHT22;13365;52.208;5.488;2023-08-07T14:27:28;22.00;86.20
25440;DHT22;13365;52.208;5.488;2023-08-07T14:29:54;21.80;85.20
25440;DHT22;13365;52.208;5.488;2023-08-07T14:32:19;21.70;87.40
25440;DHT22;13365;52.208;5.488;2023-08-07T14:34:45;21.70;89.40
25440;DHT22;13365;52.208;5.488;2023-08-07T14:37:13;21.90;86.80
25440;DHT22;13365;52.208;5.488;2023-08-07T14:39:38;21.90;86.90
25440;DHT22;13365;52.208;5.488;2023-08-07T14:42:04;22.00;85.70
25440;DHT22;13365;52.208;5.488;2023-08-07T14:44:29;21.70;87.30
25440;DHT22;13365;52.208;5.488;2023-08-07T14:46:55;21.70;87.30
25440;DHT22;13365;52.208;5.488;2023-08-07T14:49:20;21.90;88.20
25440;DHT22;13365;52.208;5.488;2023-08-07T14:51:46;22.20;87.50
25440;DHT22;13365;52.208;5.488;2023-08-07T14:54:12;22.40;87.90
25440;DHT22;13365;52.208;5.488;2023-08-07T14:56:37;22.60;88.40
25440;DHT22;13365;52.208;5.488;2023-08-07T14:59:03;22.80;89.70
25440;DHT22;13365;52.208;5.488;2023-08-07T15:01:28;23.10;88.00
25440;DHT22;13365;52.208;5.488;2023-08-07T15:03:54;23.10;86.00
25440;DHT22;13365;52.208;5.488;2023-08-07T15:06:19;23.20;85.60
25440;DHT22;13365;52.208;5.488;2023-08-07T15:08:47;23.20;85.90
25440;DHT22;13365;52.208;5.488;2023-08-07T15:11:12;22.70;83.20
25440;DHT22;13365;52.208;5.488;2023-08-07T15:13:38;22.80;83.80
25440;DHT22;13365;52.208;5.488;2023-08-07T15:16:05;22.50;83.20
25440;DHT22;13365;52.208;5.488;2023-08-07T15:18:31;22.50;87.80
25440;DHT22;13365;52.208;5.488;2023-08-07T15:20:58;22.40;83.80
25440;DHT22;13365;52.208;5.488;2023-08-07T15:23:24;22.50;84.70
25440;DHT22;13365;52.208;5.488;2023-08-07T15:25:50;22.40;86.70
25440;DHT22;13365;52.208;5.488;2023-08-07T15:28:15;22.60;85.20
25440;DHT22;13365;52.208;5.488;2023-08-07T15:30:47;22.60;85.50
25440;DHT22;13365;52.208;5.488;2023-08-07T15:33:13;22.40;86.00
25440;DHT22;13365;52.208;5.488;2023-08-07T15:35:39;22.30;86.00
25440;DHT22;13365;52.208;5.488;2023-08-07T15:38:04;22.00;87.00
25440;DHT22;13365;52.208;5.488;2023-08-07T15:40:30;21.70;87.60